createdAt,value
2022-12-26T00:01:50.421Z,4.83
2022-12-26T00:04:49.293Z,4.85
2022-12-26T00:07:39.026Z,4.88
2022-12-26T00:10:25.979Z,4.87
2022-12-26T00:13:40.031Z,4.85
2022-12-26T00:16:22.678Z,4.82
2022-12-26T00:19:10.434Z,4.84
2022-12-26T00:21:57.566Z,4.83
2022-12-26T00:24:44.272Z,4.80
2022-12-26T00:27:31.019Z,4.82
2022-12-26T00:30:17.923Z,4.79
2022-12-26T00:33:04.857Z,4.79
2022-12-26T00:35:51.659Z,4.82
2022-12-26T00:38:39.888Z,4.81
2022-12-26T00:41:26.797Z,4.80
2022-12-26T00:44:13.413Z,4.78
2022-12-26T00:47:00.454Z,4.80
2022-12-26T00:50:12.811Z,4.83
2022-12-26T00:52:55.198Z,4.84
2022-12-26T00:55:42.031Z,4.88
2022-12-26T00:58:28.767Z,4.95
2022-12-26T01:01:18.846Z,4.91
2022-12-26T01:04:05.805Z,4.90
2022-12-26T01:06:52.661Z,4.87
2022-12-26T01:09:39.436Z,4.89
2022-12-26T01:12:27.372Z,4.88
2022-12-26T01:15:15.346Z,4.84
2022-12-26T01:18:02.417Z,4.87
2022-12-26T01:20:49.587Z,4.86
2022-12-26T01:23:36.349Z,4.85
2022-12-26T01:26:23.208Z,4.83
2022-12-26T01:29:10.075Z,4.80
2022-12-26T01:31:57.885Z,4.78
2022-12-26T01:34:45.056Z,4.79
2022-12-26T01:37:31.982Z,4.84
2022-12-26T01:40:18.795Z,4.83
2022-12-26T01:43:13.657Z,4.85
2022-12-26T01:46:01.304Z,4.82
2022-12-26T01:48:48.860Z,4.89
2022-12-26T01:51:40.111Z,4.90
2022-12-26T01:54:40.176Z,4.95
2022-12-26T01:57:35.180Z,4.98
2022-12-26T02:00:21.880Z,4.98
2022-12-26T02:03:28.717Z,4.96
2022-12-26T02:06:16.305Z,4.93
2022-12-26T02:09:03.558Z,4.89
2022-12-26T02:12:36.676Z,4.86
2022-12-26T02:15:09.218Z,4.87
2022-12-26T02:17:56.379Z,4.89
2022-12-26T02:20:50.433Z,4.87
2022-12-26T02:24:16.281Z,4.83
2022-12-26T02:27:09.167Z,4.81
2022-12-26T02:30:05.754Z,4.81
2022-12-26T02:32:58.603Z,4.79
2022-12-26T02:36:08.536Z,4.74
2022-12-26T02:39:43.755Z,4.73
2022-12-26T02:43:10.864Z,4.78
2022-12-26T02:46:40.496Z,4.71
2022-12-26T02:49:32.573Z,4.66
2022-12-26T02:52:45.649Z,4.65
2022-12-26T02:55:56.703Z,4.64
2022-12-26T02:59:56.027Z,4.65
2022-12-26T03:02:57.497Z,4.61
2022-12-26T03:06:09.534Z,4.65
2022-12-26T03:09:16.980Z,4.63
2022-12-26T03:12:54.783Z,4.65
2022-12-26T03:16:12.725Z,4.62
2022-12-26T03:19:03.510Z,4.65
2022-12-26T03:21:49.748Z,4.70
2022-12-26T03:24:56.355Z,4.74
2022-12-26T03:27:42.965Z,4.71
2022-12-26T03:31:59.892Z,4.70
2022-12-26T03:34:48.002Z,4.67
2022-12-26T03:37:56.663Z,4.62
2022-12-26T03:41:11.565Z,4.57
2022-12-26T03:44:31.879Z,4.55
2022-12-26T03:47:46.739Z,4.54
2022-12-26T03:51:04.460Z,4.55
2022-12-26T03:54:18.378Z,4.52
2022-12-26T03:57:28.186Z,4.49
2022-12-26T04:00:33.839Z,4.50
2022-12-26T04:03:42.629Z,4.52
2022-12-26T04:06:56.903Z,4.51
2022-12-26T04:10:12.959Z,4.52
2022-12-26T04:13:21.968Z,4.51
2022-12-26T04:16:39.910Z,4.51
2022-12-26T04:19:43.499Z,4.54
2022-12-26T04:23:12.516Z,4.56
2022-12-26T04:26:25.013Z,4.57
2022-12-26T04:29:31.355Z,4.56
2022-12-26T04:42:06.832Z,4.60
2022-12-26T04:44:55.503Z,4.56
2022-12-26T04:48:02.233Z,4.52
2022-12-26T04:50:53.209Z,4.52
2022-12-26T04:53:39.640Z,4.51
2022-12-26T04:56:26.540Z,4.52
2022-12-26T04:59:14.185Z,4.53
2022-12-26T05:02:19.504Z,4.58
2022-12-26T05:05:25.345Z,4.58
2022-12-26T05:08:54.797Z,4.59
2022-12-26T05:11:47.457Z,4.59
2022-12-26T05:14:36.075Z,4.59
2022-12-26T05:17:43.763Z,4.62
2022-12-26T05:20:50.773Z,4.61
2022-12-26T05:23:56.626Z,4.58
2022-12-26T05:27:02.361Z,4.63
2022-12-26T05:29:50.641Z,4.66
2022-12-26T05:32:55.938Z,4.58
2022-12-26T05:35:42.842Z,4.57
2022-12-26T05:38:29.439Z,4.58
2022-12-26T05:41:16.640Z,4.57
2022-12-26T05:44:03.653Z,4.56
2022-12-26T05:46:50.544Z,4.58
2022-12-26T05:49:37.128Z,4.58
2022-12-26T05:52:23.853Z,4.57
2022-12-26T05:55:11.629Z,4.60
2022-12-26T05:58:00.589Z,4.62
2022-12-26T06:00:47.551Z,4.61
2022-12-26T06:03:35.673Z,4.62
2022-12-26T06:06:23.911Z,4.61
2022-12-26T06:09:10.405Z,4.61
2022-12-26T06:11:57.211Z,4.63
2022-12-26T06:14:43.936Z,4.61
2022-12-26T06:17:30.856Z,4.62
2022-12-26T06:20:17.627Z,4.62
2022-12-26T06:23:04.512Z,4.63
2022-12-26T06:25:55.697Z,4.62
2022-12-26T06:28:43.758Z,4.67
2022-12-26T06:31:30.023Z,4.68
2022-12-26T06:34:18.498Z,4.71
2022-12-26T06:37:04.805Z,4.73
2022-12-26T06:39:52.169Z,4.71
2022-12-26T06:42:38.554Z,4.67
2022-12-26T06:45:25.434Z,4.65
2022-12-26T06:48:12.185Z,4.65
2022-12-26T06:51:03.946Z,4.64
2022-12-26T06:53:52.827Z,4.64
2022-12-26T06:56:39.810Z,4.64
2022-12-26T06:59:26.865Z,4.63
2022-12-26T07:02:13.623Z,4.62
2022-12-26T07:05:00.322Z,4.66
2022-12-26T07:07:52.350Z,4.66
2022-12-26T07:10:41.720Z,4.67
2022-12-26T07:13:28.868Z,4.70
2022-12-26T07:16:36.638Z,4.73
2022-12-26T07:19:25.420Z,4.73
2022-12-26T07:22:12.116Z,4.75
2022-12-26T07:24:59.139Z,4.75
2022-12-26T07:27:45.798Z,4.71
2022-12-26T07:30:32.578Z,4.72
2022-12-26T07:33:19.859Z,4.73
2022-12-26T07:36:07.072Z,4.77
2022-12-26T07:38:54.300Z,4.78
2022-12-26T07:41:59.079Z,4.80
2022-12-26T07:44:45.746Z,4.82
2022-12-26T07:52:21.718Z,4.84
2022-12-26T07:55:09.705Z,4.84
2022-12-26T07:57:56.275Z,4.83
2022-12-26T08:00:46.521Z,4.81
2022-12-26T08:03:34.612Z,4.84
2022-12-26T08:06:22.198Z,4.84
2022-12-26T08:09:13.340Z,4.86
2022-12-26T08:11:59.537Z,4.84
2022-12-26T08:15:13.263Z,4.85
2022-12-26T08:18:00.112Z,4.84
2022-12-26T08:20:47.614Z,4.88
2022-12-26T08:23:34.546Z,4.89
2022-12-26T08:26:46.687Z,4.93
2022-12-26T08:29:36.429Z,4.94
2022-12-26T08:32:26.262Z,4.96
2022-12-26T08:35:12.827Z,5.00
2022-12-26T08:37:59.516Z,5.07
2022-12-26T08:40:55.486Z,5.08
2022-12-26T08:44:25.205Z,5.06
2022-12-26T08:46:50.045Z,5.07
2022-12-26T08:49:36.778Z,5.12
2022-12-26T08:52:26.763Z,5.11
2022-12-26T08:55:13.773Z,5.14
2022-12-26T08:58:00.354Z,5.15
2022-12-26T09:00:51.821Z,5.12
2022-12-26T09:03:42.458Z,5.14
2022-12-26T09:06:32.579Z,5.14
2022-12-26T09:09:19.204Z,5.19
2022-12-26T09:12:06.384Z,5.24
2022-12-26T09:14:53.482Z,5.28
2022-12-26T09:17:40.139Z,5.33
2022-12-26T09:20:26.918Z,5.37
2022-12-26T09:23:15.478Z,5.35
2022-12-26T09:26:07.069Z,5.34
2022-12-26T09:28:54.438Z,5.36
2022-12-26T09:31:41.504Z,5.37
2022-12-26T09:34:28.054Z,5.37
2022-12-26T09:37:14.766Z,5.39
2022-12-26T09:40:05.740Z,5.47
2022-12-26T09:43:05.406Z,5.53
2022-12-26T09:46:07.535Z,5.52
2022-12-26T09:49:03.800Z,5.53
2022-12-26T09:51:55.701Z,5.56
2022-12-26T09:54:49.590Z,5.59
2022-12-26T09:57:47.287Z,5.61
2022-12-26T10:00:43.944Z,5.64
2022-12-26T10:03:36.061Z,5.74
2022-12-26T10:06:26.872Z,5.78
2022-12-26T10:09:19.341Z,5.85
2022-12-26T10:12:05.749Z,5.91
2022-12-26T10:15:14.455Z,5.96
2022-12-26T10:18:38.695Z,6.01
2022-12-26T10:21:57.041Z,6.08
2022-12-26T10:24:44.999Z,6.12
2022-12-26T10:27:40.591Z,6.19
2022-12-26T10:30:37.710Z,6.23
2022-12-26T10:33:42.086Z,6.30
2022-12-26T10:36:40.993Z,6.38
2022-12-26T10:39:54.159Z,6.51
2022-12-26T10:43:22.714Z,6.61
2022-12-26T10:46:53.452Z,6.76
2022-12-26T10:49:47.411Z,6.86
2022-12-26T10:52:40.943Z,6.97
2022-12-26T10:55:35.039Z,7.14
2022-12-26T10:58:31.453Z,7.25
2022-12-26T11:01:36.056Z,7.35
2022-12-26T11:04:52.762Z,7.50
2022-12-26T11:07:40.315Z,7.62
2022-12-26T11:10:34.506Z,7.68
2022-12-26T11:13:24.415Z,7.73
2022-12-26T11:16:12.552Z,7.72
2022-12-26T11:18:59.584Z,7.77
2022-12-26T11:21:46.195Z,7.85
2022-12-26T11:24:33.003Z,7.88
2022-12-26T11:27:24.283Z,7.91
2022-12-26T11:30:16.598Z,7.94
2022-12-26T11:33:14.861Z,7.99
2022-12-26T11:36:17.213Z,8.07
2022-12-26T11:39:07.926Z,8.15
2022-12-26T11:41:55.945Z,8.25
2022-12-26T11:44:45.776Z,8.28
2022-12-26T11:47:32.661Z,8.27
2022-12-26T11:50:23.229Z,8.33
2022-12-26T11:53:47.330Z,8.34
2022-12-26T11:58:15.691Z,8.51
2022-12-26T12:07:46.287Z,10.13
2022-12-26T12:12:00.347Z,10.51
2022-12-26T12:15:30.663Z,10.97
2022-12-26T12:19:33.966Z,10.60
2022-12-26T12:24:18.388Z,10.26
2022-12-26T12:27:33.498Z,10.14
2022-12-26T12:32:17.465Z,10.06
2022-12-26T12:35:42.036Z,9.95
2022-12-26T12:39:20.935Z,9.86
2022-12-26T12:43:49.529Z,9.85
2022-12-26T12:48:13.856Z,9.92
2022-12-26T12:51:40.765Z,9.92
2022-12-26T12:55:39.378Z,9.97
2022-12-26T12:58:51.130Z,10.10
2022-12-26T13:03:00.623Z,10.15
2022-12-26T13:07:37.007Z,10.17
2022-12-26T13:10:56.337Z,10.20
2022-12-26T13:14:22.370Z,10.24
2022-12-26T13:18:25.032Z,10.28
2022-12-26T13:22:51.559Z,10.28
2022-12-26T13:27:32.347Z,10.25
2022-12-26T13:30:32.709Z,10.24
2022-12-26T13:34:18.247Z,10.25
2022-12-26T13:38:15.857Z,10.29
2022-12-26T13:41:23.067Z,10.31
2022-12-26T13:44:18.559Z,10.35
2022-12-26T13:47:38.556Z,10.31
2022-12-26T13:53:01.551Z,10.36
2022-12-26T13:57:34.934Z,10.35
2022-12-26T14:01:27.227Z,10.35
2022-12-26T14:04:23.762Z,10.36
2022-12-26T14:07:21.611Z,10.39
2022-12-26T14:10:17.305Z,10.39
2022-12-26T14:13:22.909Z,10.42
2022-12-26T14:16:19.384Z,10.54
2022-12-26T14:19:32.907Z,10.61
2022-12-26T14:22:28.470Z,10.62
2022-12-26T14:25:50.383Z,10.65
2022-12-26T14:28:48.195Z,10.67
2022-12-26T14:31:41.640Z,10.69
2022-12-26T14:34:45.342Z,10.71
2022-12-26T14:37:51.954Z,10.68
2022-12-26T14:40:39.301Z,10.71
2022-12-26T14:43:25.443Z,10.69
2022-12-26T14:46:32.084Z,10.65
2022-12-26T14:49:36.383Z,10.62
2022-12-26T14:52:23.229Z,10.61
2022-12-26T14:56:01.493Z,10.60
2022-12-26T14:59:12.082Z,10.60
2022-12-26T15:02:28.115Z,10.66
2022-12-26T15:05:21.144Z,10.72
2022-12-26T15:08:42.042Z,10.68
2022-12-26T15:12:00.636Z,10.53
2022-12-26T15:15:03.899Z,10.52
2022-12-26T15:18:02.651Z,10.47
2022-12-26T15:21:17.752Z,10.40
2022-12-26T15:25:08.414Z,10.28
2022-12-26T15:27:59.463Z,10.25
2022-12-26T15:31:07.811Z,10.13
2022-12-26T15:34:20.725Z,10.07
2022-12-26T15:37:15.880Z,9.95
2022-12-26T15:40:13.780Z,9.89
2022-12-26T15:43:18.718Z,9.86
2022-12-26T15:46:15.674Z,9.77
2022-12-26T15:49:20.370Z,9.81
2022-12-26T15:52:22.402Z,9.77
2022-12-26T15:55:15.925Z,9.69
2022-12-26T15:58:12.846Z,9.70
2022-12-26T16:00:59.983Z,9.68
2022-12-26T16:03:53.700Z,9.64
2022-12-26T16:06:55.954Z,9.62
2022-12-26T16:09:52.974Z,9.58
2022-12-26T16:12:40.968Z,9.54
2022-12-26T16:15:27.670Z,9.56
2022-12-26T16:18:30.603Z,9.58
2022-12-26T16:21:38.464Z,9.55
2022-12-26T16:24:27.870Z,9.48
2022-12-26T16:27:17.320Z,9.43
2022-12-26T16:30:12.030Z,9.43
2022-12-26T16:33:00.348Z,9.41
2022-12-26T16:35:47.251Z,9.36
2022-12-26T16:38:33.807Z,9.32
2022-12-26T16:41:31.095Z,9.28
2022-12-26T16:44:30.788Z,9.26
2022-12-26T16:47:17.520Z,9.26
2022-12-26T16:50:05.538Z,9.24
2022-12-26T16:53:12.346Z,9.25
2022-12-26T16:56:16.558Z,9.18
2022-12-26T16:59:19.092Z,9.14
2022-12-26T17:02:19.367Z,9.07
2022-12-26T17:05:22.003Z,9.00
2022-12-26T17:08:14.291Z,8.99
2022-12-26T17:11:01.053Z,8.98
2022-12-26T17:13:53.893Z,8.99
2022-12-26T17:16:44.890Z,8.95
2022-12-26T17:19:34.845Z,8.98
2022-12-26T17:22:29.650Z,9.04
2022-12-26T17:25:31.362Z,9.20
2022-12-26T17:28:18.069Z,9.36
2022-12-26T17:31:40.656Z,9.42
2022-12-26T17:34:27.550Z,9.54
2022-12-26T17:37:24.091Z,9.58
2022-12-26T17:40:13.733Z,9.56
2022-12-26T17:43:36.267Z,9.55
2022-12-26T17:46:53.856Z,9.57
2022-12-26T17:49:40.316Z,9.61
2022-12-26T17:52:33.496Z,9.59
2022-12-26T17:55:27.108Z,9.63
2022-12-26T17:58:17.434Z,9.62
2022-12-26T18:01:04.505Z,9.58
2022-12-26T18:03:52.951Z,9.55
2022-12-26T18:06:41.501Z,9.62
2022-12-26T18:09:30.093Z,9.66
2022-12-26T18:12:22.357Z,9.66
2022-12-26T18:15:09.693Z,9.67
2022-12-26T18:18:05.795Z,9.64
2022-12-26T18:20:54.445Z,9.66
2022-12-26T18:23:41.613Z,9.69
2022-12-26T18:26:29.734Z,9.65
2022-12-26T18:29:16.272Z,9.71
2022-12-26T18:32:52.061Z,9.73
2022-12-26T18:35:42.198Z,9.71
2022-12-26T18:38:28.718Z,9.70
2022-12-26T18:41:18.000Z,9.71
2022-12-26T18:44:05.408Z,9.71
2022-12-26T18:46:52.069Z,9.71
2022-12-26T18:49:42.173Z,9.72
2022-12-26T18:52:38.371Z,9.73
2022-12-26T18:55:28.747Z,9.77
2022-12-26T18:58:22.510Z,9.74
2022-12-26T19:27:08.602Z,9.76
2022-12-26T19:41:04.875Z,9.73
2022-12-26T19:55:12.296Z,9.79
2022-12-26T20:09:09.968Z,9.91
2022-12-26T20:12:09.056Z,9.88
2022-12-26T20:15:46.544Z,9.84
2022-12-26T20:19:24.896Z,9.83
2022-12-26T20:22:11.900Z,9.80
2022-12-26T20:24:59.323Z,9.79
2022-12-26T20:27:48.868Z,9.81
2022-12-26T20:30:35.732Z,9.79
2022-12-26T20:33:27.036Z,9.84
2022-12-26T20:47:12.464Z,9.84
2022-12-26T20:50:26.325Z,9.80
2022-12-26T20:53:48.152Z,9.77
2022-12-26T20:58:09.265Z,9.74
2022-12-26T21:01:01.186Z,9.72
2022-12-26T21:03:52.174Z,9.72
2022-12-26T21:06:40.102Z,9.69
2022-12-26T21:09:26.862Z,9.70
2022-12-26T21:12:21.700Z,9.67
2022-12-26T21:15:09.357Z,9.66
2022-12-26T21:17:55.855Z,9.63
2022-12-26T21:20:44.772Z,9.61
2022-12-26T21:23:31.729Z,9.61
2022-12-26T21:26:19.851Z,9.64
2022-12-26T21:29:10.950Z,9.61
2022-12-26T21:32:08.059Z,9.66
2022-12-26T21:51:25.842Z,9.66
2022-12-26T21:54:48.774Z,9.67
2022-12-26T21:58:25.426Z,9.62
2022-12-26T22:01:17.622Z,9.58
2022-12-26T22:04:21.723Z,9.63
2022-12-26T22:07:07.289Z,9.58
2022-12-26T22:12:43.855Z,9.58
2022-12-26T22:16:07.130Z,9.51
2022-12-26T22:19:22.070Z,9.48
2022-12-26T22:34:15.711Z,9.55
2022-12-26T22:48:07.270Z,9.36
2022-12-26T22:51:05.781Z,9.30
2022-12-26T22:55:22.641Z,9.16
2022-12-26T22:58:43.360Z,9.04
2022-12-26T23:02:45.749Z,8.99
2022-12-26T23:06:28.331Z,9.00
2022-12-26T23:10:30.454Z,9.00
2022-12-26T23:14:05.962Z,8.97
2022-12-26T23:18:40.341Z,8.92
2022-12-26T23:22:39.126Z,8.85
2022-12-26T23:26:39.993Z,8.88
2022-12-26T23:29:52.204Z,8.90
2022-12-26T23:32:42.815Z,8.90
2022-12-26T23:35:40.583Z,8.87
2022-12-26T23:38:27.312Z,8.85
2022-12-26T23:41:13.859Z,8.89
2022-12-26T23:44:02.570Z,8.89
2022-12-26T23:46:49.288Z,8.89
2022-12-26T23:49:36.514Z,8.92
2022-12-26T23:52:30.095Z,8.91
2022-12-26T23:55:17.173Z,8.88
2022-12-26T23:58:04.494Z,8.81
